Time;durP1;ratioP1;P1;durP2;ratioP2;P2;SDS_P1;SDS_P2;PMS_P1;PMS_P2;Temp;Humidity;BMP_temperature;BMP_pressure;BME280_temperature;BME280_humidity;BME280_pressure;Samples;Min_cycle;Max_cycle;Signal;HPM_P1;HPM_P2
2021/10/22 00:00:05;;;;;;;9.23;2.63;;;7.20;76.20;;;;;;4985375;28;20050;-84
2021/10/22 00:02:32;;;;;;;8.55;2.42;;;7.20;76.30;;;;;;4985868;28;20118;-83
2021/10/22 00:04:59;;;;;;;7.70;2.25;;;7.20;76.30;;;;;;4989655;28;20054;-84
2021/10/22 00:07:26;;;;;;;10.63;2.63;;;7.20;76.40;;;;;;4987162;28;20046;-83
2021/10/22 00:09:55;;;;;;;9.93;2.75;;;7.20;76.40;;;;;;4991313;28;20050;-83
2021/10/22 00:12:22;;;;;;;7.47;2.63;;;7.10;76.50;;;;;;4989587;28;20502;-84
2021/10/22 00:14:49;;;;;;;10.75;2.58;;;7.10;76.50;;;;;;4989314;28;20098;-84
2021/10/22 00:17:16;;;;;;;10.07;2.47;;;7.10;76.50;;;;;;4991801;28;20050;-84
2021/10/22 00:19:43;;;;;;;12.70;2.92;;;7.10;76.60;;;;;;4992075;28;20514;-83
2021/10/22 00:22:10;;;;;;;13.10;3.08;;;7.10;76.70;;;;;;4990681;28;20054;-84
2021/10/22 00:24:37;;;;;;;10.52;2.55;;;7.10;76.70;;;;;;4988958;28;20050;-84
2021/10/22 00:27:04;;;;;;;7.97;2.20;;;7.00;76.70;;;;;;4989132;28;20050;-84
2021/10/22 00:29:31;;;;;;;6.22;2.25;;;7.00;76.80;;;;;;4993529;28;20038;-84
2021/10/22 00:31:58;;;;;;;7.20;2.65;;;7.00;76.80;;;;;;4976791;28;20051;-84
2021/10/22 00:34:25;;;;;;;10.20;2.85;;;7.00;76.90;;;;;;4989143;28;20113;-83
2021/10/22 00:36:52;;;;;;;12.32;2.80;;;7.00;76.90;;;;;;4988734;28;20050;-83
2021/10/22 00:39:19;;;;;;;8.65;2.92;;;7.00;76.90;;;;;;4988737;28;20511;-83
2021/10/22 00:41:47;;;;;;;8.15;2.83;;;7.00;77.00;;;;;;4988842;28;20047;-83
2021/10/22 00:44:14;;;;;;;11.70;3.13;;;6.90;77.00;;;;;;4991670;28;20050;-83
2021/10/22 00:46:41;;;;;;;9.30;2.88;;;7.00;77.10;;;;;;4991475;28;20054;-84
2021/10/22 00:49:10;;;;;;;11.98;2.38;;;6.90;77.10;;;;;;4989803;28;20050;-83
2021/10/22 00:51:38;;;;;;;7.95;2.70;;;6.90;77.10;;;;;;4986657;28;20054;-84
2021/10/22 00:54:06;;;;;;;8.48;2.80;;;6.90;77.20;;;;;;4988650;28;20061;-83
2021/10/22 00:56:34;;;;;;;10.85;2.90;;;6.90;77.20;;;;;;4988906;28;20043;-84
2021/10/22 00:59:06;;;;;;;9.23;2.90;;;6.90;77.20;;;;;;4976321;28;20046;-84
2021/10/22 01:01:42;;;;;;;10.98;2.67;;;6.90;77.30;;;;;;4990803;28;20046;-84
2021/10/22 01:04:09;;;;;;;8.35;2.78;;;6.90;77.30;;;;;;4990070;28;20130;-84
2021/10/22 01:06:41;;;;;;;10.77;2.60;;;6.90;77.40;;;;;;4988060;28;20053;-84
2021/10/22 01:09:10;;;;;;;10.25;2.58;;;6.90;77.40;;;;;;4986247;28;20596;-83
2021/10/22 01:11:39;;;;;;;8.82;2.50;;;6.90;77.40;;;;;;4988328;28;20042;-84
2021/10/22 01:14:08;;;;;;;13.20;2.65;;;6.90;77.40;;;;;;4991309;28;20585;-84
2021/10/22 01:16:39;;;;;;;10.05;2.67;;;6.90;77.40;;;;;;4990390;28;20046;-84
2021/10/22 01:19:11;;;;;;;7.20;2.53;;;6.90;77.50;;;;;;4981218;28;20096;-83
2021/10/22 01:21:39;;;;;;;9.55;2.92;;;6.90;77.50;;;;;;4983667;28;20120;-84
2021/10/22 01:24:05;;;;;;;13.90;3.10;;;6.90;77.50;;;;;;4988205;28;20042;-83
2021/10/22 01:26:32;;;;;;;8.85;2.40;;;6.90;77.50;;;;;;4988428;28;20047;-84
2021/10/22 01:28:59;;;;;;;8.00;2.55;;;6.90;77.60;;;;;;4991250;28;20058;-84
2021/10/22 01:31:27;;;;;;;9.02;2.67;;;6.90;77.60;;;;;;4989765;28;20042;-84
2021/10/22 01:33:56;;;;;;;13.00;2.90;;;6.90;77.60;;;;;;4988102;28;20504;-84
2021/10/22 01:36:24;;;;;;;9.68;2.80;;;6.90;77.60;;;;;;4987695;28;20510;-84
2021/10/22 01:38:51;;;;;;;6.50;2.50;;;6.90;77.70;;;;;;4987837;28;20049;-84
2021/10/22 01:41:19;;;;;;;7.38;2.58;;;6.90;77.70;;;;;;4990058;28;20097;-84
2021/10/22 01:43:47;;;;;;;8.43;2.75;;;6.90;77.70;;;;;;4990509;28;20109;-84
2021/10/22 01:46:13;;;;;;;9.98;2.97;;;6.90;77.80;;;;;;4978675;28;20051;-84
2021/10/22 01:48:41;;;;;;;10.30;2.78;;;6.90;77.80;;;;;;4983689;28;20511;-84
2021/10/22 01:51:07;;;;;;;8.57;3.08;;;6.90;77.80;;;;;;4987351;28;20061;-84
2021/10/22 01:53:34;;;;;;;6.68;2.42;;;6.90;77.80;;;;;;4987736;28;20110;-84
2021/10/22 01:56:02;;;;;;;8.25;2.72;;;6.90;77.90;;;;;;4976518;28;20109;-84
2021/10/22 01:58:29;;;;;;;8.60;3.20;;;6.90;77.90;;;;;;4989533;28;20050;-84
2021/10/22 02:00:56;;;;;;;8.05;3.03;;;6.90;77.90;;;;;;4987507;28;20051;-84
2021/10/22 02:03:23;;;;;;;13.27;3.05;;;6.90;77.90;;;;;;4991772;28;20146;-83
2021/10/22 02:05:50;;;;;;;7.78;2.45;;;6.90;77.90;;;;;;4986966;28;20120;-84
2021/10/22 02:08:17;;;;;;;9.40;2.53;;;6.80;78.00;;;;;;4988291;28;20047;-84
2021/10/22 02:10:44;;;;;;;9.05;2.78;;;6.80;78.00;;;;;;4990055;28;20050;-84
2021/10/22 02:13:11;;;;;;;11.68;2.92;;;6.90;78.00;;;;;;4988782;28;20046;-84
2021/10/22 02:15:38;;;;;;;7.28;2.55;;;6.90;78.00;;;;;;4987043;28;20053;-84
2021/10/22 02:18:05;;;;;;;7.00;2.22;;;6.80;78.10;;;;;;4986950;28;20042;-84
2021/10/22 02:20:33;;;;;;;5.88;2.15;;;6.90;78.10;;;;;;4987101;28;20046;-84
2021/10/22 02:23:00;;;;;;;10.30;2.80;;;6.80;78.10;;;;;;4991455;28;20522;-84
2021/10/22 02:25:27;;;;;;;7.50;2.33;;;6.80;78.20;;;;;;4988801;28;20054;-84
2021/10/22 02:27:55;;;;;;;10.07;2.10;;;6.80;78.20;;;;;;4986874;28;20054;-84
2021/10/22 02:30:22;;;;;;;9.25;2.40;;;6.90;78.20;;;;;;4986848;28;20038;-83
2021/10/22 02:32:49;;;;;;;7.20;2.42;;;6.90;78.30;;;;;;4985980;28;20061;-84
2021/10/22 02:35:16;;;;;;;5.95;2.25;;;6.90;78.30;;;;;;4991123;28;20068;-84
2021/10/22 02:37:45;;;;;;;6.15;1.88;;;6.90;78.30;;;;;;4976132;28;20051;-83
2021/10/22 02:40:14;;;;;;;7.18;2.40;;;6.90;78.30;;;;;;4973335;28;20091;-83
2021/10/22 02:42:41;;;;;;;11.18;2.38;;;6.90;78.30;;;;;;4984563;28;20450;-83
2021/10/22 02:45:09;;;;;;;9.00;2.20;;;6.90;78.40;;;;;;4986701;28;20101;-83
2021/10/22 02:47:35;;;;;;;7.45;2.25;;;6.90;78.40;;;;;;4984676;28;20066;-84
2021/10/22 02:50:03;;;;;;;5.03;1.98;;;6.90;78.40;;;;;;4990749;28;20506;-84
2021/10/22 02:52:30;;;;;;;7.20;2.55;;;6.90;78.40;;;;;;4988626;28;20047;-84
2021/10/22 02:54:57;;;;;;;7.50;2.75;;;6.90;78.40;;;;;;4984775;28;20050;-84
2021/10/22 02:57:24;;;;;;;7.55;2.10;;;6.90;78.40;;;;;;4986381;28;20158;-84
2021/10/22 02:59:51;;;;;;;6.07;2.20;;;6.90;78.40;;;;;;4985480;28;20618;-84
2021/10/22 03:02:18;;;;;;;10.65;2.72;;;6.90;78.40;;;;;;4988427;28;20183;-83
2021/10/22 03:04:45;;;;;;;7.65;2.30;;;6.90;78.40;;;;;;4988879;28;20475;-84
2021/10/22 03:07:12;;;;;;;9.07;2.17;;;6.90;78.40;;;;;;4977099;28;20054;-84
2021/10/22 03:09:39;;;;;;;10.60;2.45;;;6.90;78.40;;;;;;4982114;28;20077;-84
2021/10/22 03:12:06;;;;;;;7.38;2.70;;;6.90;78.40;;;;;;4986118;28;20046;-83
2021/10/22 03:14:33;;;;;;;7.70;2.20;;;6.90;78.40;;;;;;4990530;28;20105;-84
2021/10/22 03:17:00;;;;;;;6.78;2.17;;;6.90;78.40;;;;;;4973263;28;20105;-84
2021/10/22 03:19:27;;;;;;;10.65;2.55;;;6.90;78.40;;;;;;4987711;28;20442;-84
2021/10/22 03:21:54;;;;;;;8.18;2.13;;;6.90;78.30;;;;;;4985927;28;20054;-84
2021/10/22 03:24:21;;;;;;;5.50;2.08;;;6.90;78.40;;;;;;4985906;28;20462;-84
2021/10/22 03:26:48;;;;;;;6.80;2.17;;;6.90;78.40;;;;;;4984322;28;20050;-84
2021/10/22 03:29:15;;;;;;;6.47;1.88;;;6.90;78.30;;;;;;4988632;28;20050;-84
2021/10/22 03:31:42;;;;;;;7.32;2.25;;;6.90;78.30;;;;;;4988232;28;20110;-84
2021/10/22 03:34:09;;;;;;;7.65;2.72;;;6.80;78.40;;;;;;4974697;28;20101;-84
2021/10/22 03:36:37;;;;;;;8.38;2.22;;;6.80;78.40;;;;;;4981324;28;20530;-84
2021/10/22 03:39:04;;;;;;;8.02;2.30;;;6.80;78.40;;;;;;4985628;28;20042;-83
2021/10/22 03:41:31;;;;;;;10.07;2.53;;;6.80;78.40;;;;;;4986288;28;20047;-84
2021/10/22 03:43:59;;;;;;;4.90;2.08;;;6.80;78.50;;;;;;4989016;28;20039;-84
2021/10/22 03:46:26;;;;;;;8.32;2.13;;;6.80;78.50;;;;;;4987070;28;20522;-84
2021/10/22 03:48:52;;;;;;;9.05;2.05;;;6.80;78.50;;;;;;4985437;28;20082;-84
2021/10/22 03:51:19;;;;;;;8.18;2.33;;;6.80;78.50;;;;;;4985474;28;20046;-84
2021/10/22 03:53:46;;;;;;;7.18;1.92;;;6.80;78.60;;;;;;4985643;28;20090;-84
2021/10/22 03:56:13;;;;;;;6.97;2.20;;;6.90;78.60;;;;;;4988490;28;20103;-84
2021/10/22 03:58:40;;;;;;;8.10;2.15;;;6.90;78.60;;;;;;4988159;28;20046;-84
2021/10/22 04:01:07;;;;;;;8.45;2.00;;;6.80;78.60;;;;;;4986371;28;20097;-84
2021/10/22 04:03:35;;;;;;;7.03;2.33;;;6.90;78.60;;;;;;4985418;28;20104;-84
2021/10/22 04:06:02;;;;;;;8.70;2.47;;;6.80;78.70;;;;;;4983711;28;20042;-84
2021/10/22 04:08:29;;;;;;;7.93;2.00;;;6.80;78.70;;;;;;4986165;28;20051;-84
2021/10/22 04:10:57;;;;;;;7.43;2.17;;;6.90;78.70;;;;;;4989325;28;20050;-84
2021/10/22 04:13:24;;;;;;;6.32;2.25;;;6.90;78.70;;;;;;4987204;28;20537;-84
2021/10/22 04:15:55;;;;;;;8.63;2.00;;;6.80;78.70;;;;;;4984873;28;20117;-84
2021/10/22 04:18:22;;;;;;;8.40;2.20;;;6.90;78.70;;;;;;4982577;28;20465;-83
2021/10/22 04:20:50;;;;;;;6.88;2.05;;;6.90;78.70;;;;;;4985158;28;20043;-84
2021/10/22 04:23:16;;;;;;;7.45;2.17;;;6.90;78.80;;;;;;4987875;28;20054;-84
2021/10/22 04:25:43;;;;;;;8.25;2.00;;;6.90;78.70;;;;;;4987958;28;20544;-84
2021/10/22 04:28:11;;;;;;;6.35;1.65;;;6.90;78.80;;;;;;4986646;28;20054;-84
2021/10/22 04:30:39;;;;;;;10.75;2.03;;;6.90;78.80;;;;;;4984778;28;20054;-84
2021/10/22 04:33:06;;;;;;;6.32;2.08;;;6.90;78.80;;;;;;4985211;28;20042;-84
2021/10/22 04:35:33;;;;;;;11.45;2.08;;;6.90;78.80;;;;;;4985595;28;20055;-84
2021/10/22 04:40:52;;;;;;;6.40;1.83;;;6.90;78.80;;;;;;4987828;28;20046;-84
2021/10/22 04:43:20;;;;;;;7.22;1.80;;;6.90;78.90;;;;;;4988317;28;20105;-83
2021/10/22 04:45:52;;;;;;;8.10;1.95;;;6.90;78.90;;;;;;4987956;28;20458;-84
2021/10/22 04:48:19;;;;;;;6.88;1.83;;;6.90;78.90;;;;;;4987615;28;20046;-84
2021/10/22 04:50:52;;;;;;;6.47;2.03;;;6.90;78.90;;;;;;4987790;28;20097;-84
2021/10/22 04:53:26;;;;;;;6.53;1.90;;;6.90;78.90;;;;;;4967052;28;20047;-84
2021/10/22 04:55:53;;;;;;;;;;;6.90;79.00;;;;;;4989001;28;20058;-84
2021/10/22 04:58:20;;;;;;;4.55;1.85;;;6.90;79.00;;;;;;4991826;28;20580;-84
2021/10/22 05:01:02;;;;;;;8.90;1.95;;;6.90;79.00;;;;;;4991886;28;20054;-83
2021/10/22 05:03:30;;;;;;;7.00;1.90;;;6.90;79.00;;;;;;4991428;28;20507;-84
2021/10/22 05:05:57;;;;;;;11.10;2.17;;;6.90;79.00;;;;;;4975201;28;20053;-84
2021/10/22 05:08:24;;;;;;;5.97;1.80;;;6.90;79.10;;;;;;4991360;28;20081;-84
2021/10/22 05:10:51;;;;;;;6.70;1.80;;;6.90;79.10;;;;;;4991294;28;20057;-84
2021/10/22 05:13:18;;;;;;;6.05;2.05;;;6.90;79.10;;;;;;4991649;28;20575;-84
2021/10/22 05:15:47;;;;;;;9.35;2.30;;;6.90;79.10;;;;;;4990941;28;20454;-84
2021/10/22 05:18:15;;;;;;;8.95;2.30;;;6.90;79.10;;;;;;4987153;28;20058;-84
2021/10/22 05:20:41;;;;;;;7.05;2.03;;;6.90;79.10;;;;;;4976498;28;20082;-84
2021/10/22 05:23:09;;;;;;;6.55;1.95;;;6.90;79.20;;;;;;4990475;28;20435;-84
2021/10/22 05:25:36;;;;;;;5.72;1.45;;;6.90;79.20;;;;;;4990595;28;20043;-84
2021/10/22 05:28:04;;;;;;;6.45;1.92;;;6.90;79.20;;;;;;4988141;28;20601;-84
2021/10/22 05:30:31;;;;;;;7.78;1.92;;;6.90;79.20;;;;;;4992282;28;20474;-84
2021/10/22 05:32:58;;;;;;;6.70;2.00;;;6.90;79.20;;;;;;4987853;28;20101;-84
2021/10/22 05:35:25;;;;;;;5.43;1.55;;;6.90;79.20;;;;;;4989508;28;20828;-84
2021/10/22 05:37:54;;;;;;;4.82;1.50;;;6.90;79.20;;;;;;4991022;28;20054;-84
2021/10/22 05:40:21;;;;;;;7.50;1.92;;;6.90;79.20;;;;;;4989625;28;20499;-84
2021/10/22 05:42:48;;;;;;;5.13;1.55;;;6.90;79.30;;;;;;4987479;28;20124;-84
2021/10/22 05:45:15;;;;;;;8.23;2.17;;;6.90;79.30;;;;;;4992142;28;20054;-84
2021/10/22 05:47:42;;;;;;;8.05;1.92;;;6.90;79.30;;;;;;4987662;28;20105;-84
2021/10/22 05:50:10;;;;;;;11.68;2.42;;;6.90;79.30;;;;;;4991395;28;20100;-84
2021/10/22 05:52:37;;;;;;;4.95;1.80;;;6.90;79.30;;;;;;4990106;28;20058;-84
2021/10/22 05:55:05;;;;;;;6.68;1.92;;;6.90;79.40;;;;;;4988183;28;20061;-84
2021/10/22 05:57:32;;;;;;;5.47;1.70;;;6.90;79.40;;;;;;4987066;28;20116;-84
2021/10/22 05:59:59;;;;;;;6.10;2.10;;;6.90;79.40;;;;;;4987411;28;20081;-84
2021/10/22 06:02:26;;;;;;;4.85;1.60;;;6.90;79.40;;;;;;4987291;28;20051;-84
2021/10/22 06:04:53;;;;;;;7.72;2.10;;;6.90;79.50;;;;;;4990694;28;20055;-84
2021/10/22 06:07:20;;;;;;;6.15;1.80;;;6.90;79.50;;;;;;4988236;28;20054;-84
2021/10/22 06:09:47;;;;;;;7.72;2.17;;;6.90;79.60;;;;;;4987131;28;20517;-84
2021/10/22 06:12:14;;;;;;;7.45;2.15;;;6.90;79.60;;;;;;4986993;28;20054;-84
2021/10/22 06:14:41;;;;;;;10.45;2.25;;;6.90;79.60;;;;;;4984565;28;20046;-84
2021/10/22 06:17:08;;;;;;;4.95;1.60;;;6.90;79.60;;;;;;4990548;28;20062;-84
2021/10/22 06:19:40;;;;;;;7.50;2.13;;;6.90;79.60;;;;;;4989878;28;20072;-84
2021/10/22 06:23:53;;;;;;;5.95;1.95;;;6.90;79.70;;;;;;4979934;28;20296;-84
2021/10/22 06:24:58;;;;;;;7.45;2.00;;;6.90;79.70;;;;;;4978372;28;20057;-84
2021/10/22 06:27:25;;;;;;;6.63;1.80;;;6.90;79.70;;;;;;4980975;28;20056;-84
2021/10/22 06:29:52;;;;;;;10.20;1.80;;;6.90;79.70;;;;;;4986978;28;20052;-84
2021/10/22 06:32:19;;;;;;;5.15;1.75;;;6.90;79.70;;;;;;4989200;28;20053;-84
2021/10/22 06:34:46;;;;;;;6.25;1.90;;;6.80;79.80;;;;;;4989664;28;20046;-84
2021/10/22 06:37:13;;;;;;;8.18;2.13;;;6.90;79.80;;;;;;4973479;28;20047;-84
2021/10/22 06:39:40;;;;;;;5.28;1.70;;;6.80;79.80;;;;;;4983872;28;20096;-84
2021/10/22 06:42:07;;;;;;;4.55;1.90;;;6.80;79.80;;;;;;4985051;28;20050;-84
2021/10/22 06:44:34;;;;;;;7.38;1.85;;;6.80;79.80;;;;;;4987025;28;20047;-84
2021/10/22 06:47:01;;;;;;;4.72;1.70;;;6.80;79.80;;;;;;4974277;28;20510;-84
2021/10/22 06:49:28;;;;;;;6.50;1.80;;;6.80;79.90;;;;;;4988218;28;20054;-83
2021/10/22 06:51:55;;;;;;;4.78;1.80;;;6.80;79.90;;;;;;4986434;28;20504;-84
2021/10/22 06:54:22;;;;;;;6.15;1.90;;;6.80;79.90;;;;;;4986106;28;20054;-84
2021/10/22 06:56:49;;;;;;;3.97;1.65;;;6.80;80.00;;;;;;4986395;28;20050;-84
2021/10/22 06:59:16;;;;;;;7.55;2.38;;;6.80;80.00;;;;;;4989184;28;20596;-84
2021/10/22 07:01:43;;;;;;;7.70;2.28;;;6.80;80.10;;;;;;4989065;28;20057;-84
2021/10/22 07:04:11;;;;;;;7.85;1.98;;;6.80;80.10;;;;;;4987640;28;20458;-84
2021/10/22 07:09:24;;;;;;;8.02;2.40;;;6.80;80.20;;;;;;4985726;28;20050;-84
2021/10/22 07:11:51;;;;;;;9.40;1.95;;;6.80;80.20;;;;;;4986192;28;20046;-84
2021/10/22 07:14:18;;;;;;;6.97;2.03;;;6.80;80.20;;;;;;4988492;28;20051;-84
2021/10/22 07:16:46;;;;;;;5.82;2.08;;;6.80;80.30;;;;;;4986425;28;20458;-84
2021/10/22 07:19:13;;;;;;;5.40;1.73;;;6.80;80.30;;;;;;4984356;28;20470;-84
2021/10/22 07:21:48;;;;;;;5.95;1.75;;;6.80;80.40;;;;;;4979605;28;20051;-84
2021/10/22 07:24:21;;;;;;;5.57;2.20;;;6.80;80.40;;;;;;4978623;28;20058;-84
2021/10/22 07:26:48;;;;;;;8.53;2.10;;;6.80;80.50;;;;;;4982194;28;20054;-84
2021/10/22 07:29:16;;;;;;;8.18;2.20;;;6.80;80.50;;;;;;4976773;28;20101;-83
2021/10/22 07:31:43;;;;;;;6.85;2.10;;;6.80;80.50;;;;;;4974507;28;20047;-84
2021/10/22 07:34:14;;;;;;;10.68;1.98;;;6.80;80.60;;;;;;4979710;28;20057;-84
2021/10/22 07:36:41;;;;;;;6.05;1.92;;;6.90;80.70;;;;;;4978826;28;20081;-84
2021/10/22 07:39:08;;;;;;;7.85;2.08;;;6.90;80.70;;;;;;4977166;28;20097;-84
2021/10/22 07:41:57;;;;;;;5.20;1.80;;;6.90;80.80;;;;;;4976288;28;20408;-84
2021/10/22 07:44:44;;;;;;;7.53;2.00;;;6.90;80.80;;;;;;4987195;28;20458;-84
2021/10/22 07:47:11;;;;;;;9.13;2.10;;;6.90;80.90;;;;;;4974304;28;20055;-84
2021/10/22 07:49:38;;;;;;;7.32;1.90;;;6.90;80.90;;;;;;4975377;28;20051;-84
2021/10/22 07:52:05;;;;;;;7.10;2.03;;;6.90;81.00;;;;;;4976658;28;20055;-84
2021/10/22 07:54:32;;;;;;;8.00;2.50;;;7.00;81.00;;;;;;4977365;28;20058;-84
2021/10/22 07:56:59;;;;;;;6.57;2.10;;;7.00;81.10;;;;;;4979490;28;20125;-84
2021/10/22 07:59:26;;;;;;;8.45;2.10;;;7.00;81.10;;;;;;4976372;28;20096;-84
2021/10/22 08:02:10;;;;;;;8.63;2.25;;;7.00;81.20;;;;;;4972350;28;20054;-84
2021/10/22 08:04:43;;;;;;;7.72;2.10;;;7.10;81.30;;;;;;4974563;28;20085;-84
2021/10/22 08:07:16;;;;;;;6.53;2.00;;;7.10;81.30;;;;;;4977173;28;20082;-84
2021/10/22 08:09:44;;;;;;;6.10;2.05;;;7.10;81.40;;;;;;4977401;28;20551;-84
2021/10/22 08:12:12;;;;;;;5.97;1.85;;;7.20;81.40;;;;;;4982278;28;20061;-84
2021/10/22 08:14:41;;;;;;;6.47;1.90;;;7.20;81.50;;;;;;4989275;28;20715;-83
2021/10/22 08:17:11;;;;;;;6.72;2.00;;;7.20;81.50;;;;;;4973937;28;20109;-84
2021/10/22 08:19:39;;;;;;;8.70;1.90;;;7.30;81.50;;;;;;4988944;28;20545;-84
2021/10/22 08:22:25;;;;;;;10.38;2.38;;;7.40;81.60;;;;;;4976783;28;20054;-84
2021/10/22 08:25:06;;;;;;;8.07;2.35;;;7.40;81.60;;;;;;4977207;28;20094;-84
2021/10/22 08:27:37;;;;;;;7.55;2.00;;;7.40;81.70;;;;;;4976947;28;20055;-84
2021/10/22 08:30:07;;;;;;;9.40;2.33;;;7.50;81.70;;;;;;4977595;28;20050;-83
2021/10/22 08:32:35;;;;;;;9.98;2.22;;;7.50;81.70;;;;;;4981070;28;20101;-83
2021/10/22 08:35:03;;;;;;;5.63;1.92;;;7.50;81.70;;;;;;4976817;28;20495;-83
2021/10/22 08:37:31;;;;;;;9.82;2.22;;;7.60;81.80;;;;;;4991675;28;20093;-81
2021/10/22 08:39:58;;;;;;;6.40;2.10;;;7.60;81.80;;;;;;4982661;28;20562;-81
2021/10/22 08:42:26;;;;;;;9.85;2.08;;;7.70;81.80;;;;;;4980747;28;20046;-84
2021/10/22 08:44:53;;;;;;;11.85;2.35;;;7.70;81.80;;;;;;4980614;28;20096;-84
2021/10/22 08:47:29;;;;;;;6.53;2.00;;;7.80;81.80;;;;;;4978800;28;20054;-84
2021/10/22 08:50:06;;;;;;;6.55;2.00;;;7.80;81.90;;;;;;4976581;28;20062;-81
2021/10/22 08:52:33;;;;;;;5.53;2.00;;;7.80;81.80;;;;;;4992004;28;20050;-83
2021/10/22 08:55:05;;;;;;;9.25;2.35;;;7.90;81.80;;;;;;4982312;28;20055;-84
2021/10/22 08:57:32;;;;;;;9.07;2.55;;;7.90;81.80;;;;;;4980114;28;20058;-84
2021/10/22 09:00:02;;;;;;;11.55;2.05;;;8.00;81.80;;;;;;4980505;28;20046;-84
2021/10/22 09:02:30;;;;;;;5.10;1.90;;;8.00;81.80;;;;;;4979542;28;20050;-84
2021/10/22 09:05:09;;;;;;;5.38;2.00;;;8.10;81.80;;;;;;4975700;28;20459;-84
2021/10/22 09:07:47;;;;;;;6.03;1.88;;;8.20;81.80;;;;;;4991403;28;20050;-82
2021/10/22 09:10:26;;;;;;;8.13;1.77;;;8.20;81.90;;;;;;4992516;28;20050;-84
2021/10/22 09:13:01;;;;;;;8.20;2.20;;;8.30;81.90;;;;;;4980503;28;20511;-84
2021/10/22 09:15:35;;;;;;;6.97;1.98;;;8.30;81.90;;;;;;4980601;28;20050;-84
2021/10/22 09:18:07;;;;;;;17.55;2.67;;;8.40;81.90;;;;;;4982108;28;20050;-83
2021/10/22 09:20:51;;;;;;;7.22;2.28;;;8.40;81.90;;;;;;4990880;28;20054;-83
2021/10/22 09:23:34;;;;;;;11.88;2.60;;;8.50;82.00;;;;;;4978189;28;20050;-84
2021/10/22 09:26:17;;;;;;;8.50;2.28;;;8.60;82.00;;;;;;4975599;28;20100;-83
2021/10/22 09:28:45;;;;;;;9.18;2.78;;;8.80;82.00;;;;;;4991329;28;20058;-83
2021/10/22 09:31:19;;;;;;;9.95;2.53;;;8.90;82.00;;;;;;4979987;28;20051;-83
2021/10/22 09:33:55;;;;;;;7.97;2.35;;;9.00;81.90;;;;;;4979259;28;20078;-83
2021/10/22 09:36:39;;;;;;;7.00;2.30;;;9.20;81.90;;;;;;4980022;28;20097;-83
2021/10/22 09:39:07;;;;;;;;;;;9.40;81.70;;;;;;4980066;28;20078;-83
2021/10/22 09:41:39;;;;;;;15.40;2.10;;;9.50;81.50;;;;;;4978532;28;19968;-82
2021/10/22 09:44:26;;;;;;;11.40;2.63;;;9.70;81.30;;;;;;4975678;28;20654;-83
2021/10/22 09:47:18;;;;;;;4.97;1.80;;;9.90;81.10;;;;;;4976440;28;20218;-84
2021/10/22 09:49:50;;;;;;;10.13;2.00;;;10.10;80.80;;;;;;4990157;28;20054;-84
2021/10/22 09:52:23;;;;;;;8.23;1.90;;;10.30;80.40;;;;;;4979594;28;20078;-84
2021/10/22 09:55:03;;;;;;;9.50;2.13;;;10.40;80.10;;;;;;4981043;28;20055;-83
2021/10/22 09:57:30;;;;;;;9.10;2.00;;;10.60;79.70;;;;;;4980797;28;20047;-84
2021/10/22 10:00:05;;;;;;;10.18;1.88;;;10.80;79.40;;;;;;4981158;28;20043;-84
2021/10/22 10:02:34;;;;;;;4.70;1.50;;;11.00;79.00;;;;;;4978847;28;20392;-83
2021/10/22 10:05:07;;;;;;;12.07;2.10;;;11.20;78.70;;;;;;4977171;28;20049;-83
2021/10/22 10:07:45;;;;;;;7.82;2.03;;;11.40;78.30;;;;;;4976849;28;20077;-84
2021/10/22 10:10:13;;;;;;;11.18;1.92;;;11.50;77.90;;;;;;4981298;28;20055;-83
2021/10/22 10:12:41;;;;;;;8.93;1.80;;;11.60;77.50;;;;;;4980637;28;20050;-84
2021/10/22 10:15:10;;;;;;;6.97;1.73;;;11.80;77.10;;;;;;4979508;28;20054;-84
2021/10/22 10:17:48;;;;;;;8.60;1.90;;;11.90;76.70;;;;;;4977070;28;20097;-83
2021/10/22 10:20:21;;;;;;;8.38;1.90;;;12.00;76.40;;;;;;4990361;28;20055;-84
2021/10/22 10:22:52;;;;;;;8.37;1.77;;;12.10;76.10;;;;;;4975334;28;20058;-83
2021/10/22 10:25:25;;;;;;;5.78;1.52;;;12.20;75.90;;;;;;4978851;28;20647;-84
2021/10/22 10:27:54;;;;;;;8.45;1.42;;;12.20;75.50;;;;;;4978776;28;20050;-83
2021/10/22 10:30:34;;;;;;;8.15;1.83;;;12.20;75.20;;;;;;4978667;28;20047;-83
2021/10/22 10:33:04;;;;;;;8.73;1.60;;;12.20;75.00;;;;;;4979986;28;20097;-83
2021/10/22 10:35:39;;;;;;;8.50;1.40;;;12.20;74.90;;;;;;4979789;28;20077;-84
2021/10/22 10:38:08;;;;;;;8.20;1.88;;;12.20;74.60;;;;;;4974649;28;20054;-84
2021/10/22 10:40:36;;;;;;;10.00;1.92;;;12.20;74.30;;;;;;4977286;28;20129;-83
2021/10/22 10:43:19;;;;;;;9.68;1.70;;;12.20;74.10;;;;;;4979390;28;20077;-84
2021/10/22 10:45:46;;;;;;;8.18;1.50;;;12.30;73.90;;;;;;4978693;28;20080;-84
2021/10/22 10:48:20;;;;;;;7.47;1.45;;;12.30;73.70;;;;;;4977775;28;20051;-83
2021/10/22 10:50:52;;;;;;;5.20;1.30;;;12.40;73.50;;;;;;4978525;28;20038;-84
2021/10/22 10:53:43;;;;;;;8.60;1.40;;;12.40;73.10;;;;;;4976245;28;20105;-85
2021/10/22 10:56:19;;;;;;;5.72;1.20;;;12.50;72.70;;;;;;4974670;28;20043;-84
2021/10/22 10:58:46;;;;;;;7.13;1.30;;;12.50;72.30;;;;;;4975761;28;20109;-84
2021/10/22 11:01:35;;;;;;;6.15;1.33;;;12.60;72.10;;;;;;4977770;28;20047;-85
2021/10/22 11:04:03;;;;;;;13.02;1.73;;;12.60;71.90;;;;;;4979658;28;20503;-84
2021/10/22 11:06:42;;;;;;;5.57;1.60;;;12.70;71.70;;;;;;4978155;28;20113;-84
2021/10/22 11:09:16;;;;;;;5.13;1.40;;;12.80;71.40;;;;;;4978408;28;20463;-83
2021/10/22 11:11:58;;;;;;;7.13;1.63;;;12.80;71.20;;;;;;4979440;28;20043;-84
2021/10/22 11:14:25;;;;;;;4.55;1.08;;;12.90;70.90;;;;;;4978446;28;20058;-83
2021/10/22 11:16:55;;;;;;;9.77;1.55;;;12.90;70.60;;;;;;4973617;28;20479;-85
2021/10/22 11:19:28;;;;;;;6.97;1.42;;;12.90;70.30;;;;;;4976876;28;20050;-84
2021/10/22 11:22:03;;;;;;;10.13;1.60;;;12.90;69.90;;;;;;4976651;28;20054;-84
2021/10/22 11:24:40;;;;;;;6.00;1.20;;;12.90;69.50;;;;;;4976697;28;20121;-84
2021/10/22 11:27:11;;;;;;;8.63;1.38;;;13.00;69.10;;;;;;4976420;28;20101;-83
2021/10/22 11:29:43;;;;;;;7.72;1.20;;;12.90;68.80;;;;;;4976353;28;20699;-83
2021/10/22 11:32:30;;;;;;;8.98;1.33;;;13.00;68.60;;;;;;4973512;28;20074;-83
2021/10/22 11:35:03;;;;;;;4.53;1.02;;;13.00;68.40;;;;;;4972946;28;20062;-83
2021/10/22 11:37:40;;;;;;;5.78;1.52;;;13.00;68.20;;;;;;4987460;28;20042;-83
2021/10/22 11:40:10;;;;;;;11.02;1.65;;;13.00;68.20;;;;;;4978360;28;20665;-83
2021/10/22 11:42:38;;;;;;;10.30;1.60;;;13.10;68.20;;;;;;4976461;28;20053;-84
2021/10/22 11:45:17;;;;;;;6.22;1.27;;;13.10;68.20;;;;;;4976192;28;20050;-83
2021/10/22 11:47:46;;;;;;;8.00;1.30;;;13.10;68.00;;;;;;4976780;28;20050;-84
2021/10/22 11:50:25;;;;;;;8.93;1.10;;;13.20;67.90;;;;;;4972326;28;20062;-84
2021/10/22 11:53:04;;;;;;;8.90;1.30;;;13.20;67.70;;;;;;4988045;28;20046;-83
2021/10/22 11:55:31;;;;;;;5.85;1.17;;;13.20;67.60;;;;;;4987547;28;20585;-84
2021/10/22 11:58:07;;;;;;;5.47;1.10;;;13.20;67.60;;;;;;4983560;28;20664;-84
2021/10/22 12:00:37;;;;;;;9.00;1.25;;;13.30;67.60;;;;;;4981309;28;20400;-83
2021/10/22 12:03:06;;;;;;;7.53;1.75;;;13.30;67.50;;;;;;4976161;28;20046;-83
2021/10/22 12:05:33;;;;;;;7.95;1.42;;;13.40;67.50;;;;;;4975128;28;20073;-84
2021/10/22 12:08:00;;;;;;;7.63;1.85;;;13.40;67.50;;;;;;4972153;28;20062;-83
2021/10/22 12:10:28;;;;;;;5.97;1.35;;;13.40;67.60;;;;;;4976270;28;20094;-83
2021/10/22 12:12:56;;;;;;;6.10;1.20;;;13.50;67.50;;;;;;4976220;28;20104;-83
2021/10/22 12:15:31;;;;;;;3.90;1.20;;;13.50;67.40;;;;;;4976097;28;20058;-83
2021/10/22 12:18:07;;;;;;;5.95;1.60;;;13.50;67.10;;;;;;4977674;28;20046;-83
2021/10/22 12:20:34;;;;;;;7.22;1.38;;;13.60;66.90;;;;;;4987379;28;20050;-84
2021/10/22 12:23:04;;;;;;;5.50;1.40;;;13.60;66.50;;;;;;4971983;28;20495;-84
2021/10/22 12:25:34;;;;;;;7.30;1.38;;;13.60;66.30;;;;;;4987321;28;20042;-84
2021/10/22 12:28:14;;;;;;;4.95;1.45;;;13.60;66.10;;;;;;4976244;28;20043;-84
2021/10/22 12:30:42;;;;;;;6.15;1.30;;;13.60;65.80;;;;;;4976184;28;20059;-83
2021/10/22 12:33:11;;;;;;;8.50;1.40;;;13.60;65.70;;;;;;4976204;28;20114;-84
2021/10/22 12:35:56;;;;;;;6.15;1.25;;;13.60;65.50;;;;;;4976241;28;20046;-84
2021/10/22 12:38:35;;;;;;;5.47;1.25;;;13.60;65.40;;;;;;4974566;28;20047;-83
2021/10/22 12:41:10;;;;;;;5.53;1.05;;;13.60;65.40;;;;;;4971704;28;20046;-84
2021/10/22 12:43:37;;;;;;;7.88;1.33;;;13.60;65.40;;;;;;4986406;28;20058;-83
2021/10/22 12:46:13;;;;;;;5.97;1.10;;;13.60;65.20;;;;;;4976396;28;20050;-83
2021/10/22 12:48:46;;;;;;;7.13;1.30;;;13.60;65.10;;;;;;4975636;28;20065;-83
2021/10/22 12:51:20;;;;;;;5.68;1.10;;;13.60;64.90;;;;;;4975748;28;20531;-83
2021/10/22 12:53:48;;;;;;;;;;;13.50;64.70;;;;;;4976429;28;20047;-83
2021/10/22 12:56:22;;;;;;;5.47;1.20;;;13.50;64.60;;;;;;4973098;28;19926;-83
2021/10/22 12:58:56;;;;;;;4.80;1.10;;;13.50;64.50;;;;;;4973364;28;20063;-83
2021/10/22 13:01:33;;;;;;;6.72;1.30;;;13.50;64.50;;;;;;4975699;28;20499;-83
2021/10/22 13:04:03;;;;;;;8.20;1.35;;;13.50;64.50;;;;;;4976362;28;20058;-83
2021/10/22 13:06:43;;;;;;;6.97;1.30;;;13.50;64.50;;;;;;4975577;28;20055;-84
2021/10/22 13:22:58;;;;;;;6.03;1.20;;;13.40;65.10;;;;;;4975296;28;20065;-82
2021/10/22 13:25:26;;;;;;;4.68;1.10;;;13.50;65.10;;;;;;4978678;28;20606;-83